sensor_id;sensor_type;location;lat;lon;timestamp;P1;durP1;ratioP1;P2;durP2;ratioP2
20042;SDS011;10182;52.896;6.496;2023-10-09T00:03:00;14.97;;;7.77;;
20042;SDS011;10182;52.896;6.496;2023-10-09T00:08:04;12.60;;;7.33;;
20042;SDS011;10182;52.896;6.496;2023-10-09T00:13:05;11.33;;;6.83;;
20042;SDS011;10182;52.896;6.496;2023-10-09T00:18:11;10.53;;;7.63;;
20042;SDS011;10182;52.896;6.496;2023-10-09T00:23:13;12.80;;;7.43;;
20042;SDS011;10182;52.896;6.496;2023-10-09T00:28:16;17.00;;;7.67;;
20042;SDS011;10182;52.896;6.496;2023-10-09T00:33:23;12.67;;;7.97;;
20042;SDS011;10182;52.896;6.496;2023-10-09T00:38:24;14.20;;;8.70;;
20042;SDS011;10182;52.896;6.496;2023-10-09T00:43:33;14.90;;;9.03;;
20042;SDS011;10182;52.896;6.496;2023-10-09T00:48:39;16.57;;;9.30;;
20042;SDS011;10182;52.896;6.496;2023-10-09T00:53:41;17.07;;;9.93;;
20042;SDS011;10182;52.896;6.496;2023-10-09T00:58:45;15.13;;;9.70;;
20042;SDS011;10182;52.896;6.496;2023-10-09T01:03:51;16.13;;;10.17;;
20042;SDS011;10182;52.896;6.496;2023-10-09T01:08:53;16.67;;;10.73;;
20042;SDS011;10182;52.896;6.496;2023-10-09T01:14:09;20.87;;;12.23;;
20042;SDS011;10182;52.896;6.496;2023-10-09T01:19:14;19.63;;;11.40;;
20042;SDS011;10182;52.896;6.496;2023-10-09T01:24:25;16.97;;;12.07;;
20042;SDS011;10182;52.896;6.496;2023-10-09T01:29:27;24.27;;;13.40;;
20042;SDS011;10182;52.896;6.496;2023-10-09T01:34:30;25.93;;;13.07;;
20042;SDS011;10182;52.896;6.496;2023-10-09T01:39:45;23.10;;;14.00;;
20042;SDS011;10182;52.896;6.496;2023-10-09T01:44:48;26.53;;;14.10;;
20042;SDS011;10182;52.896;6.496;2023-10-09T01:49:51;26.53;;;15.17;;
20042;SDS011;10182;52.896;6.496;2023-10-09T01:54:55;28.43;;;16.53;;
20042;SDS011;10182;52.896;6.496;2023-10-09T02:00:04;32.33;;;18.50;;
20042;SDS011;10182;52.896;6.496;2023-10-09T02:05:09;24.67;;;17.73;;
20042;SDS011;10182;52.896;6.496;2023-10-09T02:10:26;26.47;;;16.90;;
20042;SDS011;10182;52.896;6.496;2023-10-09T02:15:31;29.40;;;17.90;;
20042;SDS011;10182;52.896;6.496;2023-10-09T02:20:51;31.27;;;19.37;;
20042;SDS011;10182;52.896;6.496;2023-10-09T02:26:02;35.20;;;21.53;;
20042;SDS011;10182;52.896;6.496;2023-10-09T02:31:09;34.20;;;21.67;;
20042;SDS011;10182;52.896;6.496;2023-10-09T02:36:12;39.67;;;22.67;;
20042;SDS011;10182;52.896;6.496;2023-10-09T02:41:16;37.63;;;23.57;;
20042;SDS011;10182;52.896;6.496;2023-10-09T02:46:28;35.77;;;23.50;;
20042;SDS011;10182;52.896;6.496;2023-10-09T02:51:30;42.03;;;24.30;;
20042;SDS011;10182;52.896;6.496;2023-10-09T02:56:36;44.90;;;25.90;;
20042;SDS011;10182;52.896;6.496;2023-10-09T03:01:42;45.23;;;26.93;;
20042;SDS011;10182;52.896;6.496;2023-10-09T03:06:44;47.63;;;28.03;;
20042;SDS011;10182;52.896;6.496;2023-10-09T03:11:51;51.10;;;30.63;;
20042;SDS011;10182;52.896;6.496;2023-10-09T03:16:54;51.70;;;30.50;;
20042;SDS011;10182;52.896;6.496;2023-10-09T03:21:56;53.50;;;31.23;;
20042;SDS011;10182;52.896;6.496;2023-10-09T03:26:59;51.83;;;31.30;;
20042;SDS011;10182;52.896;6.496;2023-10-09T03:32:03;51.33;;;32.10;;
20042;SDS011;10182;52.896;6.496;2023-10-09T03:37:06;59.97;;;35.60;;
20042;SDS011;10182;52.896;6.496;2023-10-09T03:42:23;54.53;;;33.60;;
20042;SDS011;10182;52.896;6.496;2023-10-09T03:47:25;59.53;;;36.10;;
20042;SDS011;10182;52.896;6.496;2023-10-09T03:52:27;67.10;;;38.97;;
20042;SDS011;10182;52.896;6.496;2023-10-09T03:57:32;65.03;;;38.87;;
20042;SDS011;10182;52.896;6.496;2023-10-09T04:02:34;66.53;;;38.87;;
20042;SDS011;10182;52.896;6.496;2023-10-09T04:07:36;71.40;;;38.87;;
20042;SDS011;10182;52.896;6.496;2023-10-09T04:12:39;67.73;;;38.57;;
20042;SDS011;10182;52.896;6.496;2023-10-09T04:17:42;73.03;;;41.10;;
20042;SDS011;10182;52.896;6.496;2023-10-09T04:22:43;71.33;;;41.20;;
20042;SDS011;10182;52.896;6.496;2023-10-09T04:27:53;74.10;;;41.63;;
20042;SDS011;10182;52.896;6.496;2023-10-09T04:33:00;72.63;;;41.30;;
20042;SDS011;10182;52.896;6.496;2023-10-09T04:38:11;68.83;;;40.93;;
20042;SDS011;10182;52.896;6.496;2023-10-09T04:43:14;70.90;;;41.87;;
20042;SDS011;10182;52.896;6.496;2023-10-09T04:48:21;67.47;;;40.63;;
20042;SDS011;10182;52.896;6.496;2023-10-09T04:53:34;72.30;;;41.40;;
20042;SDS011;10182;52.896;6.496;2023-10-09T04:58:45;65.73;;;39.43;;
20042;SDS011;10182;52.896;6.496;2023-10-09T05:03:48;67.63;;;40.17;;
20042;SDS011;10182;52.896;6.496;2023-10-09T05:08:57;61.70;;;36.83;;
20042;SDS011;10182;52.896;6.496;2023-10-09T05:14:09;53.50;;;33.30;;
20042;SDS011;10182;52.896;6.496;2023-10-09T05:19:13;57.37;;;36.83;;
20042;SDS011;10182;52.896;6.496;2023-10-09T05:24:29;54.37;;;35.83;;
20042;SDS011;10182;52.896;6.496;2023-10-09T05:29:47;54.70;;;33.20;;
20042;SDS011;10182;52.896;6.496;2023-10-09T05:34:59;53.93;;;31.27;;
20042;SDS011;10182;52.896;6.496;2023-10-09T05:40:15;44.17;;;29.90;;
20042;SDS011;10182;52.896;6.496;2023-10-09T05:45:32;44.00;;;28.67;;
20042;SDS011;10182;52.896;6.496;2023-10-09T05:50:51;36.83;;;25.83;;
20042;SDS011;10182;52.896;6.496;2023-10-09T05:56:10;37.03;;;24.67;;
20042;SDS011;10182;52.896;6.496;2023-10-09T06:01:31;38.37;;;22.80;;
20042;SDS011;10182;52.896;6.496;2023-10-09T06:06:50;39.07;;;23.13;;
20042;SDS011;10182;52.896;6.496;2023-10-09T06:11:56;32.63;;;21.40;;
20042;SDS011;10182;52.896;6.496;2023-10-09T06:17:13;36.40;;;21.03;;
20042;SDS011;10182;52.896;6.496;2023-10-09T06:22:23;31.83;;;19.27;;
20042;SDS011;10182;52.896;6.496;2023-10-09T06:27:42;24.57;;;17.50;;
20042;SDS011;10182;52.896;6.496;2023-10-09T06:33:03;30.33;;;15.77;;
20042;SDS011;10182;52.896;6.496;2023-10-09T06:38:20;29.67;;;16.00;;
20042;SDS011;10182;52.896;6.496;2023-10-09T06:43:40;21.57;;;14.47;;
20042;SDS011;10182;52.896;6.496;2023-10-09T06:48:49;24.47;;;15.17;;
20042;SDS011;10182;52.896;6.496;2023-10-09T06:53:57;22.63;;;13.63;;
20042;SDS011;10182;52.896;6.496;2023-10-09T06:59:06;23.03;;;13.60;;
20042;SDS011;10182;52.896;6.496;2023-10-09T07:04:17;19.57;;;11.67;;
20042;SDS011;10182;52.896;6.496;2023-10-09T07:09:42;25.57;;;12.83;;
20042;SDS011;10182;52.896;6.496;2023-10-09T07:15:04;20.13;;;13.03;;
20042;SDS011;10182;52.896;6.496;2023-10-09T07:20:21;25.00;;;12.50;;
20042;SDS011;10182;52.896;6.496;2023-10-09T07:25:39;20.33;;;13.33;;
20042;SDS011;10182;52.896;6.496;2023-10-09T07:30:55;24.03;;;12.23;;
20042;SDS011;10182;52.896;6.496;2023-10-09T07:36:01;22.87;;;11.73;;
20042;SDS011;10182;52.896;6.496;2023-10-09T07:41:08;23.23;;;11.50;;
20042;SDS011;10182;52.896;6.496;2023-10-09T07:46:23;21.67;;;11.90;;
20042;SDS011;10182;52.896;6.496;2023-10-09T07:51:34;22.37;;;12.57;;
20042;SDS011;10182;52.896;6.496;2023-10-09T07:56:37;25.40;;;12.60;;
20042;SDS011;10182;52.896;6.496;2023-10-09T08:01:42;22.77;;;11.97;;
20042;SDS011;10182;52.896;6.496;2023-10-09T08:06:53;25.77;;;12.50;;
20042;SDS011;10182;52.896;6.496;2023-10-09T08:11:59;17.33;;;9.80;;
20042;SDS011;10182;52.896;6.496;2023-10-09T08:17:36;24.27;;;12.63;;
20042;SDS011;10182;52.896;6.496;2023-10-09T08:22:39;23.37;;;11.13;;
20042;SDS011;10182;52.896;6.496;2023-10-09T08:27:50;23.47;;;11.63;;
20042;SDS011;10182;52.896;6.496;2023-10-09T08:32:55;23.67;;;13.10;;
20042;SDS011;10182;52.896;6.496;2023-10-09T08:38:27;26.80;;;13.83;;
20042;SDS011;10182;52.896;6.496;2023-10-09T08:43:33;27.07;;;12.93;;
20042;SDS011;10182;52.896;6.496;2023-10-09T08:48:38;21.30;;;12.90;;
20042;SDS011;10182;52.896;6.496;2023-10-09T08:53:41;26.50;;;13.50;;
20042;SDS011;10182;52.896;6.496;2023-10-09T08:58:45;19.53;;;11.80;;
20042;SDS011;10182;52.896;6.496;2023-10-09T09:03:48;24.03;;;12.37;;
20042;SDS011;10182;52.896;6.496;2023-10-09T09:08:54;22.73;;;12.80;;
20042;SDS011;10182;52.896;6.496;2023-10-09T09:14:13;24.60;;;13.23;;
20042;SDS011;10182;52.896;6.496;2023-10-09T09:19:19;23.47;;;13.50;;
20042;SDS011;10182;52.896;6.496;2023-10-09T09:24:33;21.83;;;13.47;;
20042;SDS011;10182;52.896;6.496;2023-10-09T09:29:40;28.20;;;12.33;;
20042;SDS011;10182;52.896;6.496;2023-10-09T09:34:48;21.73;;;12.10;;
20042;SDS011;10182;52.896;6.496;2023-10-09T09:39:56;28.27;;;12.70;;
20042;SDS011;10182;52.896;6.496;2023-10-09T09:45:01;25.60;;;12.70;;
20042;SDS011;10182;52.896;6.496;2023-10-09T09:50:04;23.77;;;11.80;;
20042;SDS011;10182;52.896;6.496;2023-10-09T09:55:15;24.37;;;12.17;;
20042;SDS011;10182;52.896;6.496;2023-10-09T10:00:18;28.13;;;12.47;;
20042;SDS011;10182;52.896;6.496;2023-10-09T10:05:30;26.93;;;12.93;;
20042;SDS011;10182;52.896;6.496;2023-10-09T10:10:36;24.90;;;13.63;;
20042;SDS011;10182;52.896;6.496;2023-10-09T10:15:57;28.77;;;12.93;;
20042;SDS011;10182;52.896;6.496;2023-10-09T10:21:10;23.50;;;12.87;;
20042;SDS011;10182;52.896;6.496;2023-10-09T10:26:18;19.83;;;12.20;;
20042;SDS011;10182;52.896;6.496;2023-10-09T10:31:39;22.43;;;12.67;;
20042;SDS011;10182;52.896;6.496;2023-10-09T10:36:54;23.37;;;11.80;;
20042;SDS011;10182;52.896;6.496;2023-10-09T10:42:08;23.77;;;10.93;;
20042;SDS011;10182;52.896;6.496;2023-10-09T10:47:15;25.70;;;11.63;;
20042;SDS011;10182;52.896;6.496;2023-10-09T10:52:32;19.67;;;10.73;;
20042;SDS011;10182;52.896;6.496;2023-10-09T10:57:43;20.97;;;11.70;;
20042;SDS011;10182;52.896;6.496;2023-10-09T11:02:55;19.47;;;11.10;;
20042;SDS011;10182;52.896;6.496;2023-10-09T11:08:13;21.63;;;11.93;;
20042;SDS011;10182;52.896;6.496;2023-10-09T11:13:26;21.63;;;12.37;;
20042;SDS011;10182;52.896;6.496;2023-10-09T11:18:52;24.07;;;10.83;;
20042;SDS011;10182;52.896;6.496;2023-10-09T11:23:59;21.27;;;11.67;;
20042;SDS011;10182;52.896;6.496;2023-10-09T11:29:17;18.07;;;10.03;;
20042;SDS011;10182;52.896;6.496;2023-10-09T11:34:23;20.10;;;10.30;;
20042;SDS011;10182;52.896;6.496;2023-10-09T11:39:31;19.67;;;10.03;;
20042;SDS011;10182;52.896;6.496;2023-10-09T11:44:37;17.87;;;8.50;;
20042;SDS011;10182;52.896;6.496;2023-10-09T11:49:46;19.30;;;8.60;;
20042;SDS011;10182;52.896;6.496;2023-10-09T11:54:56;20.50;;;7.90;;
20042;SDS011;10182;52.896;6.496;2023-10-09T12:00:01;12.50;;;7.53;;
20042;SDS011;10182;52.896;6.496;2023-10-09T12:05:29;15.33;;;7.53;;
20042;SDS011;10182;52.896;6.496;2023-10-09T12:10:31;14.10;;;7.83;;
20042;SDS011;10182;52.896;6.496;2023-10-09T12:15:35;9.73;;;5.87;;
20042;SDS011;10182;52.896;6.496;2023-10-09T12:20:40;16.47;;;7.03;;
20042;SDS011;10182;52.896;6.496;2023-10-09T12:25:45;17.03;;;7.30;;
20042;SDS011;10182;52.896;6.496;2023-10-09T12:30:51;14.70;;;6.47;;
20042;SDS011;10182;52.896;6.496;2023-10-09T12:35:53;14.33;;;5.70;;
20042;SDS011;10182;52.896;6.496;2023-10-09T12:41:03;12.33;;;5.13;;
20042;SDS011;10182;52.896;6.496;2023-10-09T12:46:09;13.47;;;5.77;;
20042;SDS011;10182;52.896;6.496;2023-10-09T12:51:16;10.20;;;4.93;;
20042;SDS011;10182;52.896;6.496;2023-10-09T12:56:17;11.83;;;5.63;;
20042;SDS011;10182;52.896;6.496;2023-10-09T13:01:20;13.50;;;5.13;;
20042;SDS011;10182;52.896;6.496;2023-10-09T13:06:22;10.17;;;4.57;;
20042;SDS011;10182;52.896;6.496;2023-10-09T13:11:25;9.93;;;4.13;;
20042;SDS011;10182;52.896;6.496;2023-10-09T13:16:28;9.37;;;4.27;;
20042;SDS011;10182;52.896;6.496;2023-10-09T13:21:31;10.33;;;4.10;;
20042;SDS011;10182;52.896;6.496;2023-10-09T13:26:34;9.27;;;4.03;;
20042;SDS011;10182;52.896;6.496;2023-10-09T13:31:37;9.60;;;4.60;;
20042;SDS011;10182;52.896;6.496;2023-10-09T13:36:40;11.90;;;4.10;;
20042;SDS011;10182;52.896;6.496;2023-10-09T13:41:50;9.97;;;4.37;;
20042;SDS011;10182;52.896;6.496;2023-10-09T13:46:59;7.77;;;4.40;;
20042;SDS011;10182;52.896;6.496;2023-10-09T13:52:05;10.30;;;4.07;;
20042;SDS011;10182;52.896;6.496;2023-10-09T13:57:07;11.00;;;4.63;;
20042;SDS011;10182;52.896;6.496;2023-10-09T14:02:12;11.07;;;4.20;;
20042;SDS011;10182;52.896;6.496;2023-10-09T14:07:18;11.23;;;3.77;;
20042;SDS011;10182;52.896;6.496;2023-10-09T14:12:20;11.33;;;4.07;;
20042;SDS011;10182;52.896;6.496;2023-10-09T14:17:25;8.37;;;4.33;;
20042;SDS011;10182;52.896;6.496;2023-10-09T14:22:28;10.67;;;4.60;;
20042;SDS011;10182;52.896;6.496;2023-10-09T14:27:29;10.67;;;4.23;;
20042;SDS011;10182;52.896;6.496;2023-10-09T14:32:36;7.53;;;3.77;;
20042;SDS011;10182;52.896;6.496;2023-10-09T14:37:44;12.50;;;3.80;;
20042;SDS011;10182;52.896;6.496;2023-10-09T14:42:46;10.30;;;3.73;;
20042;SDS011;10182;52.896;6.496;2023-10-09T14:47:49;10.60;;;4.10;;
20042;SDS011;10182;52.896;6.496;2023-10-09T14:52:50;10.83;;;3.87;;
20042;SDS011;10182;52.896;6.496;2023-10-09T14:57:52;11.80;;;4.57;;
20042;SDS011;10182;52.896;6.496;2023-10-09T15:02:56;11.33;;;3.87;;
20042;SDS011;10182;52.896;6.496;2023-10-09T15:07:58;9.47;;;4.00;;
20042;SDS011;10182;52.896;6.496;2023-10-09T15:13:00;7.83;;;3.50;;
20042;SDS011;10182;52.896;6.496;2023-10-09T15:18:05;14.30;;;4.40;;
20042;SDS011;10182;52.896;6.496;2023-10-09T15:23:07;11.47;;;4.17;;
20042;SDS011;10182;52.896;6.496;2023-10-09T15:28:09;8.93;;;3.53;;
20042;SDS011;10182;52.896;6.496;2023-10-09T15:33:13;8.77;;;3.50;;
20042;SDS011;10182;52.896;6.496;2023-10-09T15:38:16;9.50;;;3.00;;
20042;SDS011;10182;52.896;6.496;2023-10-09T15:43:19;11.60;;;2.80;;
20042;SDS011;10182;52.896;6.496;2023-10-09T15:48:22;4.40;;;2.43;;
20042;SDS011;10182;52.896;6.496;2023-10-09T15:53:24;6.00;;;2.80;;
20042;SDS011;10182;52.896;6.496;2023-10-09T15:58:26;7.63;;;2.70;;
20042;SDS011;10182;52.896;6.496;2023-10-09T16:03:30;6.07;;;2.63;;
20042;SDS011;10182;52.896;6.496;2023-10-09T16:08:32;5.27;;;2.10;;
20042;SDS011;10182;52.896;6.496;2023-10-09T16:13:36;4.23;;;2.27;;
20042;SDS011;10182;52.896;6.496;2023-10-09T16:18:40;5.67;;;2.30;;
20042;SDS011;10182;52.896;6.496;2023-10-09T16:23:41;5.03;;;2.27;;
20042;SDS011;10182;52.896;6.496;2023-10-09T16:28:43;3.13;;;2.40;;
20042;SDS011;10182;52.896;6.496;2023-10-09T16:33:47;11.37;;;2.33;;
20042;SDS011;10182;52.896;6.496;2023-10-09T16:38:49;4.23;;;2.50;;
20042;SDS011;10182;52.896;6.496;2023-10-09T16:43:52;4.87;;;2.23;;
20042;SDS011;10182;52.896;6.496;2023-10-09T16:48:55;6.63;;;2.87;;
20042;SDS011;10182;52.896;6.496;2023-10-09T16:53:59;7.93;;;2.97;;
20042;SDS011;10182;52.896;6.496;2023-10-09T16:59:03;6.67;;;2.90;;
20042;SDS011;10182;52.896;6.496;2023-10-09T17:04:06;5.63;;;2.73;;
20042;SDS011;10182;52.896;6.496;2023-10-09T17:09:11;8.77;;;3.00;;
20042;SDS011;10182;52.896;6.496;2023-10-09T17:14:13;6.53;;;2.83;;
20042;SDS011;10182;52.896;6.496;2023-10-09T17:19:18;6.97;;;3.10;;
20042;SDS011;10182;52.896;6.496;2023-10-09T17:24:19;4.37;;;2.60;;
20042;SDS011;10182;52.896;6.496;2023-10-09T17:29:21;5.67;;;2.87;;
20042;SDS011;10182;52.896;6.496;2023-10-09T17:34:25;6.53;;;2.63;;
20042;SDS011;10182;52.896;6.496;2023-10-09T17:39:27;4.60;;;2.73;;
20042;SDS011;10182;52.896;6.496;2023-10-09T17:44:30;5.70;;;2.93;;
20042;SDS011;10182;52.896;6.496;2023-10-09T17:49:33;9.60;;;4.10;;
20042;SDS011;10182;52.896;6.496;2023-10-09T17:54:37;9.57;;;3.07;;
20042;SDS011;10182;52.896;6.496;2023-10-09T17:59:39;7.10;;;3.27;;
20042;SDS011;10182;52.896;6.496;2023-10-09T18:04:44;9.27;;;3.80;;
20042;SDS011;10182;52.896;6.496;2023-10-09T18:09:45;8.07;;;2.83;;
20042;SDS011;10182;52.896;6.496;2023-10-09T18:14:52;12.30;;;4.07;;
20042;SDS011;10182;52.896;6.496;2023-10-09T18:19:56;9.57;;;3.20;;
20042;SDS011;10182;52.896;6.496;2023-10-09T18:24:58;7.47;;;3.63;;
20042;SDS011;10182;52.896;6.496;2023-10-09T18:30:00;8.53;;;3.70;;
20042;SDS011;10182;52.896;6.496;2023-10-09T18:35:06;8.03;;;3.37;;
20042;SDS011;10182;52.896;6.496;2023-10-09T18:40:10;7.07;;;3.57;;
20042;SDS011;10182;52.896;6.496;2023-10-09T18:45:12;6.80;;;3.03;;
20042;SDS011;10182;52.896;6.496;2023-10-09T18:50:17;6.83;;;3.23;;
20042;SDS011;10182;52.896;6.496;2023-10-09T18:55:18;8.83;;;3.43;;
20042;SDS011;10182;52.896;6.496;2023-10-09T19:00:20;8.30;;;3.30;;
20042;SDS011;10182;52.896;6.496;2023-10-09T19:05:31;9.63;;;3.87;;
20042;SDS011;10182;52.896;6.496;2023-10-09T19:10:33;8.30;;;3.73;;
20042;SDS011;10182;52.896;6.496;2023-10-09T19:15:35;6.87;;;3.80;;
20042;SDS011;10182;52.896;6.496;2023-10-09T19:20:38;9.13;;;3.87;;
20042;SDS011;10182;52.896;6.496;2023-10-09T19:25:41;7.97;;;4.57;;
20042;SDS011;10182;52.896;6.496;2023-10-09T19:30:43;6.90;;;3.63;;
20042;SDS011;10182;52.896;6.496;2023-10-09T19:35:46;7.80;;;4.03;;
20042;SDS011;10182;52.896;6.496;2023-10-09T19:40:49;11.30;;;4.50;;
20042;SDS011;10182;52.896;6.496;2023-10-09T19:45:52;10.27;;;4.43;;
20042;SDS011;10182;52.896;6.496;2023-10-09T19:51:04;7.80;;;4.47;;
20042;SDS011;10182;52.896;6.496;2023-10-09T19:56:07;7.00;;;4.47;;
20042;SDS011;10182;52.896;6.496;2023-10-09T20:01:17;11.67;;;4.93;;
20042;SDS011;10182;52.896;6.496;2023-10-09T20:06:20;11.03;;;4.63;;
20042;SDS011;10182;52.896;6.496;2023-10-09T20:11:23;10.27;;;4.23;;
20042;SDS011;10182;52.896;6.496;2023-10-09T20:16:25;9.17;;;3.83;;
20042;SDS011;10182;52.896;6.496;2023-10-09T20:21:28;7.60;;;4.17;;
20042;SDS011;10182;52.896;6.496;2023-10-09T20:26:31;10.10;;;4.20;;
20042;SDS011;10182;52.896;6.496;2023-10-09T20:31:33;13.47;;;4.43;;
20042;SDS011;10182;52.896;6.496;2023-10-09T20:36:42;9.13;;;5.10;;
20042;SDS011;10182;52.896;6.496;2023-10-09T20:41:44;8.27;;;4.63;;
20042;SDS011;10182;52.896;6.496;2023-10-09T20:46:46;6.40;;;4.30;;
20042;SDS011;10182;52.896;6.496;2023-10-09T20:51:49;8.63;;;5.00;;
20042;SDS011;10182;52.896;6.496;2023-10-09T20:56:52;7.73;;;5.10;;
20042;SDS011;10182;52.896;6.496;2023-10-09T21:01:54;10.33;;;5.70;;
20042;SDS011;10182;52.896;6.496;2023-10-09T21:06:57;11.27;;;5.20;;
20042;SDS011;10182;52.896;6.496;2023-10-09T21:11:59;13.10;;;5.63;;
20042;SDS011;10182;52.896;6.496;2023-10-09T21:17:01;8.70;;;5.37;;
20042;SDS011;10182;52.896;6.496;2023-10-09T21:22:04;9.30;;;5.30;;
20042;SDS011;10182;52.896;6.496;2023-10-09T21:27:06;13.77;;;5.70;;
20042;SDS011;10182;52.896;6.496;2023-10-09T21:32:08;11.03;;;5.77;;
20042;SDS011;10182;52.896;6.496;2023-10-09T21:37:14;9.30;;;5.37;;
20042;SDS011;10182;52.896;6.496;2023-10-09T21:42:19;10.13;;;5.23;;
20042;SDS011;10182;52.896;6.496;2023-10-09T21:47:21;7.83;;;5.20;;
20042;SDS011;10182;52.896;6.496;2023-10-09T21:52:24;12.33;;;6.00;;
20042;SDS011;10182;52.896;6.496;2023-10-09T21:57:25;9.73;;;6.53;;
20042;SDS011;10182;52.896;6.496;2023-10-09T22:02:27;11.67;;;6.30;;
20042;SDS011;10182;52.896;6.496;2023-10-09T22:07:31;11.87;;;5.87;;
20042;SDS011;10182;52.896;6.496;2023-10-09T22:12:33;12.70;;;5.93;;
20042;SDS011;10182;52.896;6.496;2023-10-09T22:17:34;7.70;;;5.40;;
20042;SDS011;10182;52.896;6.496;2023-10-09T22:22:44;10.37;;;5.93;;
20042;SDS011;10182;52.896;6.496;2023-10-09T22:27:47;7.13;;;6.00;;
20042;SDS011;10182;52.896;6.496;2023-10-09T22:32:51;10.43;;;5.77;;
20042;SDS011;10182;52.896;6.496;2023-10-09T22:37:54;13.03;;;6.30;;
20042;SDS011;10182;52.896;6.496;2023-10-09T22:42:58;10.37;;;6.07;;
20042;SDS011;10182;52.896;6.496;2023-10-09T22:48:03;8.83;;;6.43;;
20042;SDS011;10182;52.896;6.496;2023-10-09T22:53:07;11.13;;;6.70;;
20042;SDS011;10182;52.896;6.496;2023-10-09T22:58:12;10.83;;;6.30;;
20042;SDS011;10182;52.896;6.496;2023-10-09T23:03:16;13.23;;;6.67;;
20042;SDS011;10182;52.896;6.496;2023-10-09T23:08:30;16.17;;;7.63;;
20042;SDS011;10182;52.896;6.496;2023-10-09T23:13:32;11.40;;;7.93;;
20042;SDS011;10182;52.896;6.496;2023-10-09T23:18:35;14.37;;;8.50;;
20042;SDS011;10182;52.896;6.496;2023-10-09T23:24:08;12.77;;;8.63;;
20042;SDS011;10182;52.896;6.496;2023-10-09T23:29:10;14.30;;;8.77;;
20042;SDS011;10182;52.896;6.496;2023-10-09T23:34:12;15.93;;;8.83;;
20042;SDS011;10182;52.896;6.496;2023-10-09T23:39:21;15.53;;;10.13;;
20042;SDS011;10182;52.896;6.496;2023-10-09T23:44:49;13.93;;;10.10;;
20042;SDS011;10182;52.896;6.496;2023-10-09T23:49:50;12.97;;;8.83;;
20042;SDS011;10182;52.896;6.496;2023-10-09T23:54:54;14.00;;;9.77;;
